EJU151H LIMC-LIEE
Flight info
| Callsign | EJU151H |
|---|---|
| Flight time | 1h 18m |
| Altitude | 35000 |
| Route | ROBAS DCT TINKU DCT ALEDI M126 LEDRO |
| Aircraft | A21N/M-SDE2E3FGHIRWXY/LB1 |
Departure
| Time | 2026-05-06 21:52 |
|---|---|
| Airport | Milan Malpensa International Airport (LIMC) |
Arrival
| Time | 2026-05-06 23:11 |
|---|---|
| Airport | Cagliari Elmas Airport (LIEE) |
| Time | Latitude | Longitude | Altitude | Speed | Heading |
|---|---|---|---|---|---|
| 2026-05-06 21:41 | 45.64666 | 8.72074 | 737 ft | 0 kts | 169° |
| 2026-05-06 21:42 | 45.64665 | 8.72074 | 737 ft | 0 kts | 169° |
| 2026-05-06 21:42 | 45.64661 | 8.72075 | 737 ft | 1 kts | 169° |
| 2026-05-06 21:43 | 45.64651 | 8.72078 | 738 ft | 2 kts | 169° |
| 2026-05-06 21:43 | 45.64625 | 8.72084 | 739 ft | 5 kts | 171° |
| 2026-05-06 21:43 | 45.64579 | 8.72096 | 739 ft | 8 kts | 169° |
| 2026-05-06 21:43 | 45.64516 | 8.72114 | 739 ft | 10 kts | 168° |
| 2026-05-06 21:44 | 45.64444 | 8.72155 | 739 ft | 11 kts | 131° |
| 2026-05-06 21:44 | 45.64423 | 8.72241 | 739 ft | 8 kts | 78° |
| 2026-05-06 21:44 | 45.64432 | 8.72305 | 739 ft | 6 kts | 79° |
| 2026-05-06 21:44 | 45.64440 | 8.72366 | 739 ft | 8 kts | 80° |
| 2026-05-06 21:45 | 45.64403 | 8.72430 | 739 ft | 10 kts | 168° |
| 2026-05-06 21:45 | 45.64329 | 8.72451 | 739 ft | 10 kts | 168° |
| 2026-05-06 21:45 | 45.64272 | 8.72467 | 739 ft | 7 kts | 169° |
| 2026-05-06 21:45 | 45.64229 | 8.72479 | 739 ft | 7 kts | 168° |
| 2026-05-06 21:46 | 45.64168 | 8.72497 | 738 ft | 11 kts | 169° |
| 2026-05-06 21:46 | 45.64095 | 8.72515 | 738 ft | 9 kts | 170° |
| 2026-05-06 21:46 | 45.64042 | 8.72536 | 739 ft | 8 kts | 160° |
| 2026-05-06 21:46 | 45.63979 | 8.72558 | 739 ft | 12 kts | 169° |
| 2026-05-06 21:47 | 45.63878 | 8.72585 | 739 ft | 18 kts | 167° |
| 2026-05-06 21:47 | 45.63735 | 8.72626 | 739 ft | 24 kts | 169° |
| 2026-05-06 21:47 | 45.63552 | 8.72676 | 739 ft | 30 kts | 169° |
| 2026-05-06 21:47 | 45.63359 | 8.72729 | 739 ft | 26 kts | 169° |
| 2026-05-06 21:48 | 45.63180 | 8.72779 | 739 ft | 25 kts | 169° |
| 2026-05-06 21:48 | 45.62995 | 8.72829 | 739 ft | 28 kts | 169° |
| 2026-05-06 21:48 | 45.62831 | 8.72875 | 739 ft | 23 kts | 169° |
| 2026-05-06 21:48 | 45.62675 | 8.72917 | 740 ft | 23 kts | 169° |
| 2026-05-06 21:49 | 45.62521 | 8.72959 | 738 ft | 22 kts | 169° |
| 2026-05-06 21:49 | 45.62369 | 8.73000 | 739 ft | 22 kts | 169° |
| 2026-05-06 21:49 | 45.62220 | 8.73040 | 740 ft | 22 kts | 169° |
| 2026-05-06 21:49 | 45.62072 | 8.73083 | 740 ft | 21 kts | 169° |
| 2026-05-06 21:50 | 45.61927 | 8.73122 | 740 ft | 21 kts | 169° |
| 2026-05-06 21:50 | 45.61787 | 8.73164 | 740 ft | 18 kts | 162° |
| 2026-05-06 21:50 | 45.61715 | 8.73260 | 740 ft | 13 kts | 124° |
| 2026-05-06 21:50 | 45.61662 | 8.73371 | 740 ft | 14 kts | 124° |
| 2026-05-06 21:51 | 45.61608 | 8.73487 | 739 ft | 17 kts | 122° |
| 2026-05-06 21:51 | 45.61589 | 8.73653 | 740 ft | 15 kts | 79° |
| 2026-05-06 21:51 | 45.61658 | 8.73727 | 739 ft | 14 kts | 349° |
| 2026-05-06 21:51 | 45.61800 | 8.73689 | 740 ft | 39 kts | 349° |
| 2026-05-06 21:52 | 45.62269 | 8.73556 | 743 ft | 98 kts | 349° |
| 2026-05-06 21:52 | 45.63144 | 8.73314 | 739 ft | 157 kts | 348° |
| 2026-05-06 21:52 | 45.64269 | 8.72984 | 1143 ft | 166 kts | 348° |
| 2026-05-06 21:52 | 45.65415 | 8.72692 | 1732 ft | 169 kts | 356° |
| 2026-05-06 21:53 | 45.66612 | 8.72642 | 2309 ft | 175 kts | 1° |
| 2026-05-06 21:53 | 45.67911 | 8.72651 | 2685 ft | 201 kts | 0° |
| 2026-05-06 21:53 | 45.69402 | 8.72632 | 3025 ft | 226 kts | 359° |
| 2026-05-06 21:53 | 45.71045 | 8.72507 | 3579 ft | 243 kts | 349° |
| 2026-05-06 21:54 | 45.72574 | 8.71520 | 4458 ft | 244 kts | 315° |
| 2026-05-06 21:54 | 45.73404 | 8.69470 | 5329 ft | 241 kts | 278° |
| 2026-05-06 21:54 | 45.73275 | 8.67107 | 6170 ft | 240 kts | 253° |
| 2026-05-06 21:54 | 45.72743 | 8.64828 | 6965 ft | 243 kts | 251° |
| 2026-05-06 21:55 | 45.72145 | 8.62529 | 7668 ft | 249 kts | 250° |
| 2026-05-06 21:55 | 45.71470 | 8.60238 | 8483 ft | 251 kts | 243° |
| 2026-05-06 21:55 | 45.70573 | 8.58028 | 9084 ft | 265 kts | 239° |
| 2026-05-06 21:55 | 45.69540 | 8.55770 | 9737 ft | 276 kts | 233° |
| 2026-05-06 21:56 | 45.68167 | 8.53794 | 10335 ft | 290 kts | 217° |
| 2026-05-06 21:56 | 45.66268 | 8.52566 | 10622 ft | 315 kts | 191° |
| 2026-05-06 21:56 | 45.64014 | 8.52751 | 10968 ft | 338 kts | 163° |
| 2026-05-06 21:56 | 45.61958 | 8.54462 | 11612 ft | 351 kts | 138° |
| 2026-05-06 21:57 | 45.60549 | 8.57334 | 12388 ft | 359 kts | 116° |
| 2026-05-06 21:57 | 45.59603 | 8.60657 | 13186 ft | 364 kts | 113° |
| 2026-05-06 21:57 | 45.58650 | 8.64029 | 13950 ft | 368 kts | 115° |
| 2026-05-06 21:57 | 45.57612 | 8.67386 | 14646 ft | 372 kts | 117° |
| 2026-05-06 21:58 | 45.56371 | 8.70627 | 15319 ft | 373 kts | 128° |
| 2026-05-06 21:58 | 45.54684 | 8.73416 | 16024 ft | 372 kts | 139° |
| 2026-05-06 21:58 | 45.52762 | 8.75891 | 16727 ft | 374 kts | 143° |
| 2026-05-06 21:58 | 45.50716 | 8.78200 | 17430 ft | 376 kts | 146° |
| 2026-05-06 21:59 | 45.48574 | 8.80445 | 18113 ft | 379 kts | 148° |
| 2026-05-06 21:59 | 45.46421 | 8.82633 | 18680 ft | 382 kts | 148° |
| 2026-05-06 21:59 | 45.44251 | 8.84828 | 19246 ft | 385 kts | 148° |
| 2026-05-06 21:59 | 45.42061 | 8.87058 | 19791 ft | 388 kts | 148° |
| 2026-05-06 22:00 | 45.39854 | 8.89323 | 20300 ft | 393 kts | 148° |
| 2026-05-06 22:00 | 45.37636 | 8.91619 | 20869 ft | 396 kts | 148° |
| 2026-05-06 22:00 | 45.35407 | 8.93937 | 21415 ft | 398 kts | 148° |
| 2026-05-06 22:00 | 45.33164 | 8.96271 | 21960 ft | 401 kts | 148° |
| 2026-05-06 22:01 | 45.30904 | 8.98626 | 22484 ft | 404 kts | 148° |
| 2026-05-06 22:01 | 45.28626 | 9.00995 | 22981 ft | 407 kts | 148° |
| 2026-05-06 22:01 | 45.26334 | 9.03378 | 23472 ft | 410 kts | 149° |
| 2026-05-06 22:01 | 45.24028 | 9.05772 | 23882 ft | 412 kts | 149° |
| 2026-05-06 22:02 | 45.21706 | 9.08178 | 24278 ft | 414 kts | 149° |
| 2026-05-06 22:02 | 45.19376 | 9.10592 | 24700 ft | 416 kts | 149° |
| 2026-05-06 22:02 | 45.17033 | 9.13015 | 25103 ft | 418 kts | 150° |
| 2026-05-06 22:02 | 45.14679 | 9.15445 | 25495 ft | 419 kts | 150° |
| 2026-05-06 22:03 | 45.12317 | 9.17881 | 25882 ft | 421 kts | 150° |
| 2026-05-06 22:03 | 45.09945 | 9.20327 | 26253 ft | 423 kts | 150° |
| 2026-05-06 22:03 | 45.07562 | 9.22779 | 26617 ft | 424 kts | 150° |
| 2026-05-06 22:03 | 45.05173 | 9.25239 | 27020 ft | 424 kts | 152° |
| 2026-05-06 22:04 | 45.02785 | 9.27695 | 27398 ft | 425 kts | 152° |
| 2026-05-06 22:04 | 45.00384 | 9.30158 | 27703 ft | 427 kts | 152° |
| 2026-05-06 22:04 | 44.97970 | 9.32630 | 27987 ft | 430 kts | 152° |
| 2026-05-06 22:04 | 44.95539 | 9.35116 | 28299 ft | 432 kts | 152° |
| 2026-05-06 22:05 | 44.93101 | 9.37610 | 28613 ft | 434 kts | 152° |
| 2026-05-06 22:05 | 44.90652 | 9.40112 | 28900 ft | 436 kts | 152° |
| 2026-05-06 22:05 | 44.88197 | 9.42619 | 29325 ft | 435 kts | 152° |
| 2026-05-06 22:05 | 44.85757 | 9.45111 | 29778 ft | 433 kts | 152° |
| 2026-05-06 22:06 | 44.83322 | 9.47597 | 30188 ft | 431 kts | 152° |
| 2026-05-06 22:06 | 44.80893 | 9.50073 | 30511 ft | 431 kts | 152° |
| 2026-05-06 22:06 | 44.78463 | 9.52543 | 30769 ft | 431 kts | 153° |
| 2026-05-06 22:06 | 44.76039 | 9.55005 | 31095 ft | 429 kts | 153° |
| 2026-05-06 22:07 | 44.73628 | 9.57450 | 31441 ft | 428 kts | 153° |
| 2026-05-06 22:07 | 44.71207 | 9.59902 | 31744 ft | 428 kts | 153° |
| 2026-05-06 22:07 | 44.68796 | 9.62342 | 32050 ft | 427 kts | 153° |
| 2026-05-06 22:07 | 44.66386 | 9.64778 | 32341 ft | 426 kts | 153° |
| 2026-05-06 22:08 | 44.63980 | 9.67208 | 32616 ft | 426 kts | 153° |
| 2026-05-06 22:08 | 44.61575 | 9.69634 | 32896 ft | 425 kts | 153° |
| 2026-05-06 22:08 | 44.59173 | 9.72056 | 33168 ft | 425 kts | 153° |
| 2026-05-06 22:08 | 44.56774 | 9.74472 | 33368 ft | 425 kts | 153° |
| 2026-05-06 22:09 | 44.54369 | 9.76888 | 33553 ft | 426 kts | 153° |
| 2026-05-06 22:09 | 44.51963 | 9.79305 | 33801 ft | 425 kts | 153° |
| 2026-05-06 22:09 | 44.49562 | 9.81715 | 34041 ft | 424 kts | 152° |
| 2026-05-06 22:09 | 44.47165 | 9.84121 | 34196 ft | 424 kts | 153° |
| 2026-05-06 22:10 | 44.44774 | 9.86519 | 34468 ft | 422 kts | 153° |
| 2026-05-06 22:10 | 44.42391 | 9.88906 | 34665 ft | 421 kts | 153° |
| 2026-05-06 22:10 | 44.40005 | 9.91289 | 34814 ft | 422 kts | 153° |
| 2026-05-06 22:10 | 44.37614 | 9.93674 | 34936 ft | 424 kts | 153° |
| 2026-05-06 22:11 | 44.32845 | 9.98426 | 34962 ft | 423 kts | 153° |
| 2026-05-06 22:11 | 44.28059 | 10.03192 | 34981 ft | 423 kts | 153° |
| 2026-05-06 22:12 | 44.23262 | 10.07956 | 34987 ft | 423 kts | 153° |
| 2026-05-06 22:12 | 44.18469 | 10.12706 | 34984 ft | 423 kts | 153° |
| 2026-05-06 22:13 | 44.13674 | 10.17448 | 34999 ft | 424 kts | 152° |
| 2026-05-06 22:13 | 44.08831 | 10.22223 | 34983 ft | 427 kts | 152° |
| 2026-05-06 22:14 | 44.03975 | 10.27007 | 34989 ft | 428 kts | 152° |
| 2026-05-06 22:14 | 43.99111 | 10.31789 | 34983 ft | 428 kts | 152° |
| 2026-05-06 22:15 | 43.95041 | 10.35783 | 34972 ft | 428 kts | 152° |
| 2026-05-06 22:15 | 43.90172 | 10.40552 | 34989 ft | 429 kts | 152° |
| 2026-05-06 22:16 | 43.85301 | 10.45313 | 34993 ft | 428 kts | 153° |
| 2026-05-06 22:16 | 43.80427 | 10.50066 | 34991 ft | 428 kts | 153° |
| 2026-05-06 22:17 | 43.77876 | 10.52066 | 34995 ft | 416 kts | 165° |
| 2026-05-06 22:17 | 43.75156 | 10.53202 | 34993 ft | 403 kts | 178° |
| 2026-05-06 22:17 | 43.69662 | 10.53259 | 34992 ft | 394 kts | 189° |
| 2026-05-06 22:18 | 43.64214 | 10.52519 | 34991 ft | 393 kts | 192° |
| 2026-05-06 22:18 | 43.58775 | 10.51655 | 34976 ft | 393 kts | 191° |
| 2026-05-06 22:19 | 43.53330 | 10.50840 | 34960 ft | 394 kts | 191° |
| 2026-05-06 22:19 | 43.47863 | 10.50065 | 34975 ft | 396 kts | 191° |
| 2026-05-06 22:20 | 43.42386 | 10.49306 | 34972 ft | 396 kts | 191° |
| 2026-05-06 22:20 | 43.36908 | 10.48550 | 34972 ft | 396 kts | 191° |
| 2026-05-06 22:21 | 43.31426 | 10.47791 | 34972 ft | 396 kts | 191° |
| 2026-05-06 22:21 | 43.25932 | 10.47030 | 34972 ft | 397 kts | 191° |
| 2026-05-06 22:22 | 43.20435 | 10.46271 | 34971 ft | 397 kts | 191° |
| 2026-05-06 22:22 | 43.14938 | 10.45513 | 34947 ft | 397 kts | 191° |
| 2026-05-06 22:23 | 43.09424 | 10.44753 | 34964 ft | 399 kts | 191° |
| 2026-05-06 22:23 | 43.03895 | 10.43994 | 34975 ft | 399 kts | 191° |
| 2026-05-06 22:24 | 42.98364 | 10.43236 | 34964 ft | 399 kts | 191° |
| 2026-05-06 22:24 | 42.92832 | 10.42479 | 34959 ft | 400 kts | 191° |
| 2026-05-06 22:25 | 42.87288 | 10.41721 | 34956 ft | 400 kts | 191° |
| 2026-05-06 22:25 | 42.81745 | 10.40966 | 34958 ft | 400 kts | 191° |
| 2026-05-06 22:26 | 42.76207 | 10.40212 | 34955 ft | 400 kts | 191° |
| 2026-05-06 22:26 | 42.70656 | 10.39458 | 34956 ft | 402 kts | 191° |
| 2026-05-06 22:27 | 42.65087 | 10.38702 | 34955 ft | 402 kts | 191° |
| 2026-05-06 22:27 | 42.59517 | 10.37948 | 34954 ft | 402 kts | 191° |
| 2026-05-06 22:28 | 42.53945 | 10.37195 | 34935 ft | 403 kts | 191° |
| 2026-05-06 22:28 | 42.48354 | 10.36440 | 34955 ft | 405 kts | 191° |
| 2026-05-06 22:29 | 42.42746 | 10.35684 | 34955 ft | 405 kts | 191° |
| 2026-05-06 22:29 | 42.37140 | 10.34932 | 34955 ft | 405 kts | 191° |
| 2026-05-06 22:30 | 42.31534 | 10.34180 | 34958 ft | 405 kts | 191° |
| 2026-05-06 22:30 | 42.25924 | 10.33428 | 34958 ft | 405 kts | 191° |
| 2026-05-06 22:31 | 42.20315 | 10.32678 | 34955 ft | 405 kts | 191° |
| 2026-05-06 22:31 | 42.14703 | 10.31929 | 34947 ft | 405 kts | 191° |
| 2026-05-06 22:32 | 42.09085 | 10.31180 | 34958 ft | 406 kts | 191° |
| 2026-05-06 22:32 | 42.03464 | 10.30433 | 34958 ft | 406 kts | 191° |
| 2026-05-06 22:33 | 41.97837 | 10.29686 | 34963 ft | 406 kts | 191° |
| 2026-05-06 22:33 | 41.92208 | 10.28940 | 34956 ft | 407 kts | 191° |
| 2026-05-06 22:34 | 41.86603 | 10.28198 | 34967 ft | 408 kts | 191° |
| 2026-05-06 22:34 | 41.80953 | 10.27452 | 34960 ft | 408 kts | 191° |
| 2026-05-06 22:35 | 41.75306 | 10.26708 | 34962 ft | 408 kts | 191° |
| 2026-05-06 22:35 | 41.69648 | 10.25963 | 34963 ft | 409 kts | 190° |
| 2026-05-06 22:36 | 41.63982 | 10.25219 | 34969 ft | 409 kts | 190° |
| 2026-05-06 22:36 | 41.58278 | 10.24471 | 34969 ft | 409 kts | 190° |
| 2026-05-06 22:37 | 41.52613 | 10.23730 | 34946 ft | 409 kts | 190° |
| 2026-05-06 22:37 | 41.46938 | 10.22988 | 34968 ft | 411 kts | 190° |
| 2026-05-06 22:38 | 41.41247 | 10.22245 | 34969 ft | 411 kts | 190° |
| 2026-05-06 22:38 | 41.35557 | 10.21505 | 34974 ft | 411 kts | 190° |
| 2026-05-06 22:39 | 41.29862 | 10.20765 | 34973 ft | 412 kts | 190° |
| 2026-05-06 22:39 | 41.24152 | 10.20024 | 34973 ft | 413 kts | 190° |
| 2026-05-06 22:40 | 41.18433 | 10.19283 | 34975 ft | 413 kts | 190° |
| 2026-05-06 22:40 | 41.12711 | 10.18544 | 34973 ft | 413 kts | 190° |
| 2026-05-06 22:41 | 41.04113 | 10.17433 | 34985 ft | 415 kts | 190° |
| 2026-05-06 22:42 | 40.98365 | 10.16693 | 34986 ft | 415 kts | 190° |
| 2026-05-06 22:42 | 40.92703 | 10.15966 | 34980 ft | 415 kts | 190° |
| 2026-05-06 22:43 | 40.86950 | 10.15228 | 34985 ft | 416 kts | 190° |
| 2026-05-06 22:43 | 40.81181 | 10.14489 | 34988 ft | 417 kts | 190° |
| 2026-05-06 22:44 | 40.75406 | 10.13751 | 34987 ft | 417 kts | 190° |
| 2026-05-06 22:44 | 40.69627 | 10.13014 | 34985 ft | 417 kts | 190° |
| 2026-05-06 22:44 | 40.66739 | 10.12645 | 34776 ft | 417 kts | 189° |
| 2026-05-06 22:45 | 40.63834 | 10.12274 | 33989 ft | 423 kts | 189° |
| 2026-05-06 22:45 | 40.60893 | 10.11898 | 33151 ft | 425 kts | 189° |
| 2026-05-06 22:45 | 40.57959 | 10.11526 | 32539 ft | 422 kts | 189° |
| 2026-05-06 22:45 | 40.55065 | 10.11162 | 32128 ft | 414 kts | 189° |
| 2026-05-06 22:46 | 40.52219 | 10.10806 | 31677 ft | 408 kts | 189° |
| 2026-05-06 22:46 | 40.49415 | 10.10454 | 31218 ft | 402 kts | 189° |
| 2026-05-06 22:46 | 40.46647 | 10.10105 | 30739 ft | 397 kts | 189° |
| 2026-05-06 22:46 | 40.43913 | 10.09759 | 30301 ft | 392 kts | 189° |
| 2026-05-06 22:47 | 40.41214 | 10.09417 | 29821 ft | 387 kts | 189° |
| 2026-05-06 22:47 | 40.38549 | 10.09080 | 29344 ft | 382 kts | 189° |
| 2026-05-06 22:47 | 40.35921 | 10.08748 | 28899 ft | 377 kts | 189° |
| 2026-05-06 22:47 | 40.33330 | 10.08422 | 28455 ft | 372 kts | 189° |
| 2026-05-06 22:48 | 40.30770 | 10.08099 | 28022 ft | 367 kts | 189° |
| 2026-05-06 22:48 | 40.28240 | 10.07780 | 27593 ft | 363 kts | 189° |
| 2026-05-06 22:48 | 40.25742 | 10.07465 | 27165 ft | 359 kts | 189° |
| 2026-05-06 22:48 | 40.23268 | 10.07154 | 26741 ft | 355 kts | 189° |
| 2026-05-06 22:49 | 40.20820 | 10.06846 | 26299 ft | 352 kts | 189° |
| 2026-05-06 22:49 | 40.18391 | 10.06540 | 25877 ft | 349 kts | 190° |
| 2026-05-06 22:49 | 40.15981 | 10.06237 | 25452 ft | 346 kts | 190° |
| 2026-05-06 22:49 | 40.13593 | 10.05937 | 25032 ft | 344 kts | 190° |
| 2026-05-06 22:50 | 40.11218 | 10.05639 | 24620 ft | 342 kts | 190° |
| 2026-05-06 22:50 | 40.08858 | 10.05343 | 24199 ft | 340 kts | 190° |
| 2026-05-06 22:50 | 40.06511 | 10.05049 | 23789 ft | 338 kts | 190° |
| 2026-05-06 22:50 | 40.04177 | 10.04756 | 23337 ft | 336 kts | 190° |
| 2026-05-06 22:51 | 40.01854 | 10.04465 | 22886 ft | 334 kts | 190° |
| 2026-05-06 22:51 | 39.99541 | 10.04176 | 22485 ft | 333 kts | 190° |
| 2026-05-06 22:51 | 39.97243 | 10.03889 | 22062 ft | 331 kts | 190° |
| 2026-05-06 22:51 | 39.94960 | 10.03604 | 21655 ft | 329 kts | 190° |
| 2026-05-06 22:52 | 39.92694 | 10.03322 | 21240 ft | 326 kts | 190° |
| 2026-05-06 22:52 | 39.90441 | 10.03042 | 20828 ft | 324 kts | 190° |
| 2026-05-06 22:52 | 39.88206 | 10.02764 | 20421 ft | 322 kts | 190° |
| 2026-05-06 22:52 | 39.85983 | 10.02487 | 20016 ft | 320 kts | 190° |
| 2026-05-06 22:53 | 39.83774 | 10.02212 | 19609 ft | 318 kts | 190° |
| 2026-05-06 22:53 | 39.81579 | 10.01939 | 19201 ft | 316 kts | 189° |
| 2026-05-06 22:53 | 39.79397 | 10.01668 | 18809 ft | 314 kts | 189° |
| 2026-05-06 22:53 | 39.77230 | 10.01399 | 18406 ft | 312 kts | 189° |
| 2026-05-06 22:54 | 39.75073 | 10.01132 | 17963 ft | 310 kts | 189° |
| 2026-05-06 22:54 | 39.72933 | 10.00867 | 17555 ft | 307 kts | 189° |
| 2026-05-06 22:54 | 39.70811 | 10.00604 | 17165 ft | 306 kts | 189° |
| 2026-05-06 22:54 | 39.68699 | 10.00342 | 16779 ft | 304 kts | 189° |
| 2026-05-06 22:55 | 39.66596 | 10.00082 | 16379 ft | 303 kts | 189° |
| 2026-05-06 22:55 | 39.64533 | 9.99827 | 15992 ft | 301 kts | 189° |
| 2026-05-06 22:55 | 39.62477 | 9.99455 | 15616 ft | 296 kts | 197° |
| 2026-05-06 22:55 | 39.60569 | 9.98546 | 15210 ft | 290 kts | 211° |
| 2026-05-06 22:56 | 39.58867 | 9.97166 | 14836 ft | 287 kts | 217° |
| 2026-05-06 22:56 | 39.57250 | 9.95656 | 14508 ft | 286 kts | 218° |
| 2026-05-06 22:56 | 39.55654 | 9.94115 | 14175 ft | 285 kts | 219° |
| 2026-05-06 22:56 | 39.54072 | 9.92574 | 13836 ft | 284 kts | 219° |
| 2026-05-06 22:57 | 39.52499 | 9.91038 | 13464 ft | 282 kts | 219° |
| 2026-05-06 22:57 | 39.50936 | 9.89512 | 13134 ft | 280 kts | 219° |
| 2026-05-06 22:57 | 39.49388 | 9.87999 | 12804 ft | 278 kts | 218° |
| 2026-05-06 22:57 | 39.48369 | 9.87003 | 12585 ft | 276 kts | 218° |
| 2026-05-06 22:58 | 39.46840 | 9.85511 | 12255 ft | 274 kts | 218° |
| 2026-05-06 22:58 | 39.45322 | 9.84030 | 11927 ft | 272 kts | 218° |
| 2026-05-06 22:58 | 39.43815 | 9.82560 | 11613 ft | 272 kts | 218° |
| 2026-05-06 22:58 | 39.42300 | 9.81082 | 11284 ft | 274 kts | 218° |
| 2026-05-06 22:59 | 39.40779 | 9.79601 | 10954 ft | 273 kts | 217° |
| 2026-05-06 22:59 | 39.39274 | 9.78135 | 10736 ft | 266 kts | 217° |
| 2026-05-06 22:59 | 39.37833 | 9.76733 | 10649 ft | 253 kts | 217° |
| 2026-05-06 22:59 | 39.36437 | 9.75377 | 10383 ft | 250 kts | 217° |
| 2026-05-06 23:00 | 39.35052 | 9.74030 | 10064 ft | 248 kts | 217° |
| 2026-05-06 23:00 | 39.33680 | 9.72697 | 9767 ft | 245 kts | 217° |
| 2026-05-06 23:00 | 39.32325 | 9.71382 | 9474 ft | 243 kts | 217° |
| 2026-05-06 23:00 | 39.30970 | 9.70066 | 9192 ft | 244 kts | 217° |
| 2026-05-06 23:01 | 39.29614 | 9.68750 | 8908 ft | 244 kts | 217° |
| 2026-05-06 23:01 | 39.28256 | 9.67432 | 8628 ft | 244 kts | 217° |
| 2026-05-06 23:01 | 39.26900 | 9.66112 | 8364 ft | 244 kts | 217° |
| 2026-05-06 23:01 | 39.25545 | 9.64794 | 8095 ft | 244 kts | 217° |
| 2026-05-06 23:02 | 39.24190 | 9.63475 | 7828 ft | 244 kts | 217° |
| 2026-05-06 23:02 | 39.22835 | 9.62158 | 7566 ft | 244 kts | 217° |
| 2026-05-06 23:02 | 39.21480 | 9.60841 | 7308 ft | 244 kts | 217° |
| 2026-05-06 23:02 | 39.20125 | 9.59524 | 7044 ft | 244 kts | 217° |
| 2026-05-06 23:03 | 39.18769 | 9.58208 | 6782 ft | 244 kts | 217° |
| 2026-05-06 23:03 | 39.17416 | 9.56895 | 6525 ft | 243 kts | 217° |
| 2026-05-06 23:03 | 39.16068 | 9.55587 | 6264 ft | 242 kts | 217° |
| 2026-05-06 23:03 | 39.14724 | 9.54284 | 5985 ft | 241 kts | 216° |
| 2026-05-06 23:04 | 39.13384 | 9.52984 | 5725 ft | 241 kts | 217° |
| 2026-05-06 23:04 | 39.12174 | 9.51541 | 5469 ft | 241 kts | 231° |
| 2026-05-06 23:04 | 39.11402 | 9.49632 | 5209 ft | 243 kts | 253° |
| 2026-05-06 23:04 | 39.11233 | 9.47463 | 4946 ft | 246 kts | 268° |
| 2026-05-06 23:05 | 39.11310 | 9.45202 | 4773 ft | 261 kts | 272° |
| 2026-05-06 23:05 | 39.11430 | 9.42830 | 4617 ft | 269 kts | 272° |
| 2026-05-06 23:05 | 39.11550 | 9.40419 | 4465 ft | 270 kts | 272° |
| 2026-05-06 23:05 | 39.11664 | 9.38011 | 4314 ft | 269 kts | 271° |
| 2026-05-06 23:06 | 39.11771 | 9.35614 | 4226 ft | 268 kts | 271° |
| 2026-05-06 23:06 | 39.11874 | 9.33219 | 4157 ft | 268 kts | 271° |
| 2026-05-06 23:06 | 39.11975 | 9.30828 | 4075 ft | 267 kts | 271° |
| 2026-05-06 23:06 | 39.12074 | 9.28440 | 4009 ft | 267 kts | 271° |
| 2026-05-06 23:07 | 39.12171 | 9.26123 | 3977 ft | 251 kts | 271° |
| 2026-05-06 23:07 | 39.12262 | 9.23921 | 3727 ft | 244 kts | 271° |
| 2026-05-06 23:07 | 39.12385 | 9.21757 | 3378 ft | 242 kts | 282° |
| 2026-05-06 23:07 | 39.13052 | 9.19776 | 3019 ft | 240 kts | 300° |
| 2026-05-06 23:08 | 39.14104 | 9.18144 | 2668 ft | 234 kts | 317° |
| 2026-05-06 23:08 | 39.15325 | 9.16828 | 2369 ft | 224 kts | 319° |
| 2026-05-06 23:08 | 39.16456 | 9.15522 | 2078 ft | 210 kts | 316° |
| 2026-05-06 23:08 | 39.17493 | 9.14298 | 1797 ft | 194 kts | 317° |
| 2026-05-06 23:09 | 39.18457 | 9.13184 | 1564 ft | 178 kts | 318° |
| 2026-05-06 23:09 | 39.19336 | 9.12166 | 1324 ft | 163 kts | 318° |
| 2026-05-06 23:09 | 39.20143 | 9.11230 | 1109 ft | 151 kts | 319° |
| 2026-05-06 23:09 | 39.20916 | 9.10333 | 919 ft | 149 kts | 319° |
| 2026-05-06 23:10 | 39.21686 | 9.09443 | 729 ft | 148 kts | 318° |
| 2026-05-06 23:10 | 39.22452 | 9.08551 | 552 ft | 149 kts | 316° |
| 2026-05-06 23:10 | 39.23217 | 9.07659 | 311 ft | 148 kts | 317° |
| 2026-05-06 23:10 | 39.23979 | 9.06778 | 121 ft | 147 kts | 317° |
| 2026-05-06 23:11 | 39.24718 | 9.05922 | 31 ft | 133 kts | 317° |
| 2026-05-06 23:11 | 39.25299 | 9.05253 | 20 ft | 76 kts | 318° |
| 2026-05-06 23:11 | 39.25511 | 9.05008 | 27 ft | 25 kts | 318° |
| 2026-05-06 23:11 | 39.25643 | 9.04867 | 25 ft | 23 kts | 333° |
| 2026-05-06 23:12 | 39.25728 | 9.04852 | 27 ft | 9 kts | 9° |
| 2026-05-06 23:12 | 39.25776 | 9.04901 | 25 ft | 10 kts | 69° |
| 2026-05-06 23:12 | 39.25765 | 9.04984 | 24 ft | 10 kts | 126° |
| 2026-05-06 23:12 | 39.25715 | 9.05047 | 23 ft | 10 kts | 139° |
| 2026-05-06 23:13 | 39.25654 | 9.05118 | 23 ft | 14 kts | 137° |
| 2026-05-06 23:13 | 39.25581 | 9.05204 | 23 ft | 14 kts | 138° |
| 2026-05-06 23:13 | 39.25506 | 9.05289 | 22 ft | 15 kts | 138° |
| 2026-05-06 23:13 | 39.25437 | 9.05387 | 22 ft | 15 kts | 122° |
| 2026-05-06 23:14 | 39.25407 | 9.05478 | 25 ft | 10 kts | 102° |
| 2026-05-06 23:14 | 39.25395 | 9.05564 | 22 ft | 10 kts | 101° |
| 2026-05-06 23:14 | 39.25359 | 9.05641 | 22 ft | 10 kts | 139° |
| 2026-05-06 23:14 | 39.25307 | 9.05706 | 22 ft | 11 kts | 136° |
| 2026-05-06 23:15 | 39.25253 | 9.05768 | 22 ft | 10 kts | 142° |
| 2026-05-06 23:15 | 39.25221 | 9.05814 | 22 ft | 5 kts | 96° |
| 2026-05-06 23:15 | 39.25241 | 9.05849 | 21 ft | 5 kts | 43° |
| 2026-05-06 23:15 | 39.25253 | 9.05864 | 21 ft | 0 kts | 43° |